createdAt,value
2018-11-14T00:00:48.038Z,0.00
2018-11-14T00:01:47.964Z,0.00
2018-11-14T00:02:47.899Z,0.00
2018-11-14T00:03:47.831Z,0.00
2018-11-14T00:04:47.764Z,0.00
2018-11-14T00:05:47.698Z,0.00
2018-11-14T00:06:47.633Z,0.00
2018-11-14T00:07:47.567Z,0.00
2018-11-14T00:08:47.501Z,0.00
2018-11-14T00:09:47.515Z,0.00
2018-11-14T00:10:47.365Z,0.00
2018-11-14T00:11:47.315Z,0.00
2018-11-14T00:12:47.249Z,0.00
2018-11-14T00:13:47.171Z,0.00
2018-11-14T00:14:47.104Z,0.00
2018-11-14T00:15:47.038Z,0.00
2018-11-14T00:16:46.969Z,0.00
2018-11-14T00:17:46.902Z,0.00
2018-11-14T00:18:46.843Z,0.00
2018-11-14T00:19:46.775Z,0.00
2018-11-14T00:20:46.708Z,0.00
2018-11-14T00:21:46.819Z,0.00
2018-11-14T00:22:46.575Z,0.00
2018-11-14T00:23:46.516Z,0.00
2018-11-14T00:24:46.492Z,0.00
2018-11-14T00:25:46.376Z,0.00
2018-11-14T00:26:46.346Z,0.00
2018-11-14T00:27:46.303Z,0.00
2018-11-14T00:28:46.176Z,0.00
2018-11-14T00:29:46.110Z,0.00
2018-11-14T00:30:46.044Z,0.00
2018-11-14T00:31:45.978Z,0.00
2018-11-14T00:32:45.916Z,0.00
2018-11-14T00:33:45.864Z,0.00
2018-11-14T00:34:45.850Z,0.00
2018-11-14T00:35:45.714Z,0.00
2018-11-14T00:36:45.647Z,0.00
2018-11-14T00:37:45.579Z,0.00
2018-11-14T00:38:45.512Z,0.00
2018-11-14T00:39:45.450Z,0.00
2018-11-14T00:40:45.383Z,0.00
2018-11-14T00:41:45.320Z,0.00
2018-11-14T00:42:45.251Z,0.00
2018-11-14T00:43:45.185Z,0.00
2018-11-14T00:44:45.117Z,0.00
2018-11-14T00:45:45.049Z,0.00
2018-11-14T00:46:44.987Z,0.00
2018-11-14T00:47:44.920Z,0.00
2018-11-14T00:48:44.852Z,0.00
2018-11-14T00:49:44.790Z,0.00
2018-11-14T00:50:44.720Z,0.00
2018-11-14T00:51:44.657Z,0.00
2018-11-14T00:52:44.587Z,0.00
2018-11-14T00:53:44.525Z,0.00
2018-11-14T00:54:44.457Z,0.00
2018-11-14T00:55:44.388Z,0.00
2018-11-14T00:56:44.324Z,0.00
2018-11-14T00:57:44.260Z,0.00
2018-11-14T00:58:44.192Z,0.00
2018-11-14T00:59:44.121Z,0.00
2018-11-14T01:00:44.059Z,0.00
2018-11-14T01:01:44.135Z,0.00
2018-11-14T01:02:43.934Z,0.00
2018-11-14T01:03:43.860Z,0.00
2018-11-14T01:04:43.801Z,0.00
2018-11-14T01:05:43.735Z,0.00
2018-11-14T01:06:43.657Z,0.00
2018-11-14T01:07:43.593Z,0.00
2018-11-14T01:08:43.524Z,0.00
2018-11-14T01:09:43.462Z,0.00
2018-11-14T01:10:43.399Z,0.00
2018-11-14T01:11:43.331Z,0.00
2018-11-14T01:12:43.266Z,0.00
2018-11-14T01:13:43.195Z,0.00
2018-11-14T01:14:43.133Z,0.00
2018-11-14T01:15:43.063Z,0.00
2018-11-14T01:16:43.001Z,0.00
2018-11-14T01:17:42.935Z,0.00
2018-11-14T01:18:42.867Z,0.00
2018-11-14T01:19:42.822Z,0.00
2018-11-14T01:20:42.734Z,0.00
2018-11-14T01:21:42.703Z,0.00
2018-11-14T01:22:42.601Z,0.00
2018-11-14T01:23:42.538Z,0.00
2018-11-14T01:24:42.471Z,0.00
2018-11-14T01:25:42.404Z,0.00
2018-11-14T01:26:42.342Z,0.00
2018-11-14T01:27:42.267Z,0.00
2018-11-14T01:28:42.205Z,0.00
2018-11-14T01:29:42.137Z,0.00
2018-11-14T01:30:42.067Z,0.00
2018-11-14T01:31:42.007Z,0.00
2018-11-14T01:32:41.945Z,0.00
2018-11-14T01:33:41.872Z,0.00
2018-11-14T01:34:41.811Z,0.00
2018-11-14T01:35:41.769Z,0.00
2018-11-14T01:36:41.672Z,0.00
2018-11-14T01:37:41.605Z,0.00
2018-11-14T01:38:41.544Z,0.00
2018-11-14T01:39:41.480Z,0.00
2018-11-14T01:40:41.412Z,0.00
2018-11-14T01:41:41.363Z,0.00
2018-11-14T01:42:41.275Z,0.00
2018-11-14T01:43:41.209Z,0.00
2018-11-14T01:44:41.141Z,0.00
2018-11-14T01:45:41.081Z,0.00
2018-11-14T01:46:41.013Z,0.00
2018-11-14T01:47:40.955Z,0.00
2018-11-14T01:48:40.875Z,0.00
2018-11-14T01:49:40.813Z,0.00
2018-11-14T01:50:40.745Z,0.00
2018-11-14T01:51:40.676Z,0.00
2018-11-14T01:52:40.610Z,0.00
2018-11-14T01:53:40.544Z,0.00
2018-11-14T01:54:40.479Z,0.00
2018-11-14T01:55:40.413Z,0.00
2018-11-14T01:56:40.352Z,0.00
2018-11-14T01:57:40.280Z,0.00
2018-11-14T01:58:40.213Z,0.00
2018-11-14T01:59:40.141Z,0.00
2018-11-14T02:00:40.078Z,0.00
2018-11-14T02:01:40.026Z,0.00
2018-11-14T02:02:39.946Z,0.00
2018-11-14T02:03:39.878Z,0.00
2018-11-14T02:04:39.821Z,0.00
2018-11-14T02:05:39.750Z,0.00
2018-11-14T02:06:39.684Z,0.00
2018-11-14T02:07:39.627Z,0.00
2018-11-14T02:08:39.558Z,0.00
2018-11-14T02:09:39.481Z,0.00
2018-11-14T02:10:39.416Z,0.00
2018-11-14T02:11:39.347Z,0.00
2018-11-14T02:12:39.280Z,0.00
2018-11-14T02:13:39.214Z,0.00
2018-11-14T02:14:39.147Z,0.00
2018-11-14T02:15:39.079Z,0.00
2018-11-14T02:16:39.016Z,0.00
2018-11-14T02:17:38.947Z,0.00
2018-11-14T02:18:38.882Z,0.00
2018-11-14T02:19:38.812Z,0.00
2018-11-14T02:20:38.743Z,0.00
2018-11-14T02:21:38.680Z,0.00
2018-11-14T02:22:38.611Z,0.00
2018-11-14T02:23:38.547Z,0.00
2018-11-14T02:24:38.485Z,0.00
2018-11-14T02:25:38.423Z,0.00
2018-11-14T02:26:38.348Z,0.00
2018-11-14T02:27:38.279Z,0.00
2018-11-14T02:28:38.214Z,0.00
2018-11-14T02:29:38.146Z,0.00
2018-11-14T02:30:38.077Z,0.00
2018-11-14T02:31:38.010Z,0.00
2018-11-14T02:32:37.946Z,0.00
2018-11-14T02:33:37.884Z,0.00
2018-11-14T02:34:37.816Z,0.00
2018-11-14T02:35:37.747Z,0.00
2018-11-14T02:36:37.679Z,0.00
2018-11-14T02:37:37.619Z,0.00
2018-11-14T02:38:37.545Z,0.00
2018-11-14T02:39:37.478Z,0.00
2018-11-14T02:40:37.411Z,0.00
2018-11-14T02:41:37.348Z,0.00
2018-11-14T02:42:37.307Z,0.00
2018-11-14T02:43:37.217Z,0.00
2018-11-14T02:44:37.148Z,0.00
2018-11-14T02:45:37.078Z,0.00
2018-11-14T02:46:37.011Z,0.00
2018-11-14T02:47:36.944Z,0.00
2018-11-14T02:48:36.877Z,0.00
2018-11-14T02:49:36.808Z,0.00
2018-11-14T02:50:36.746Z,0.00
2018-11-14T02:51:36.675Z,0.00
2018-11-14T02:52:36.613Z,0.00
2018-11-14T02:53:36.546Z,0.00
2018-11-14T02:54:36.479Z,0.00
2018-11-14T02:55:36.411Z,0.00
2018-11-14T02:56:36.337Z,0.00
2018-11-14T02:57:36.277Z,0.00
2018-11-14T02:58:36.208Z,0.00
2018-11-14T02:59:36.140Z,0.00
2018-11-14T03:00:36.078Z,0.00
2018-11-14T03:01:36.012Z,0.00
2018-11-14T03:02:35.940Z,0.00
2018-11-14T03:03:35.871Z,0.00
2018-11-14T03:04:35.809Z,0.00
2018-11-14T03:05:35.741Z,0.00
2018-11-14T03:06:35.673Z,0.00
2018-11-14T03:07:35.617Z,0.00
2018-11-14T03:08:35.546Z,0.00
2018-11-14T03:09:35.478Z,0.00
2018-11-14T03:10:35.404Z,0.00
2018-11-14T03:11:35.339Z,0.00
2018-11-14T03:12:35.392Z,0.00
2018-11-14T03:13:35.209Z,0.00
2018-11-14T03:14:35.143Z,0.00
2018-11-14T03:15:35.070Z,0.00
2018-11-14T03:16:35.003Z,0.00
2018-11-14T03:17:34.941Z,0.00
2018-11-14T03:18:34.875Z,0.00
2018-11-14T03:19:34.806Z,0.00
2018-11-14T03:20:34.746Z,0.00
2018-11-14T03:21:34.667Z,0.00
2018-11-14T03:22:34.604Z,0.00
2018-11-14T03:23:34.536Z,0.00
2018-11-14T03:24:34.472Z,0.00
2018-11-14T03:25:34.402Z,0.00
2018-11-14T03:26:34.345Z,0.00
2018-11-14T03:27:34.271Z,0.00
2018-11-14T03:28:34.203Z,0.00
2018-11-14T03:29:34.136Z,0.00
2018-11-14T03:30:34.068Z,0.00
2018-11-14T03:31:34.004Z,0.00
2018-11-14T03:32:33.936Z,0.00
2018-11-14T03:33:33.893Z,0.00
2018-11-14T03:34:33.810Z,0.00
2018-11-14T03:35:33.735Z,0.00
2018-11-14T03:36:33.669Z,0.00
2018-11-14T03:37:33.603Z,0.00
2018-11-14T03:38:33.533Z,0.00
2018-11-14T03:39:33.471Z,0.00
2018-11-14T03:40:33.401Z,0.00
2018-11-14T03:41:33.334Z,0.00
2018-11-14T03:42:33.275Z,0.00
2018-11-14T03:43:33.201Z,0.00
2018-11-14T03:44:33.136Z,0.00
2018-11-14T03:45:33.072Z,0.00
2018-11-14T03:46:33.000Z,0.00
2018-11-14T03:47:32.938Z,0.00
2018-11-14T03:48:32.867Z,0.00
2018-11-14T03:49:32.801Z,0.00
2018-11-14T03:50:32.737Z,0.00
2018-11-14T03:51:32.675Z,0.00
2018-11-14T03:52:32.602Z,0.00
2018-11-14T03:53:32.533Z,0.00
2018-11-14T03:54:32.499Z,0.00
2018-11-14T03:55:32.400Z,0.00
2018-11-14T03:56:32.336Z,0.00
2018-11-14T03:57:32.263Z,0.00
2018-11-14T03:58:32.274Z,0.00
2018-11-14T03:59:32.135Z,0.00
2018-11-14T04:00:32.068Z,0.00
2018-11-14T04:01:32.002Z,0.00
2018-11-14T04:02:31.935Z,0.00
2018-11-14T04:03:31.867Z,0.00
2018-11-14T04:04:31.800Z,0.00
2018-11-14T04:05:31.783Z,0.00
2018-11-14T04:06:31.667Z,0.00
2018-11-14T04:07:31.599Z,0.00
2018-11-14T04:08:31.537Z,0.00
2018-11-14T04:09:31.542Z,0.00
2018-11-14T04:10:31.401Z,0.00
2018-11-14T04:11:31.329Z,0.00
2018-11-14T04:12:31.294Z,0.00
2018-11-14T04:13:31.201Z,0.00
2018-11-14T04:14:31.134Z,0.00
2018-11-14T04:15:31.073Z,0.00
2018-11-14T04:16:30.998Z,0.00
2018-11-14T04:17:30.934Z,0.00
2018-11-14T04:18:30.868Z,0.00
2018-11-14T04:19:30.804Z,0.00
2018-11-14T04:20:30.736Z,0.00
2018-11-14T04:21:30.664Z,0.00
2018-11-14T04:22:30.602Z,0.00
2018-11-14T04:23:30.535Z,0.00
2018-11-14T04:24:30.466Z,0.00
2018-11-14T04:25:30.399Z,0.00
2018-11-14T04:26:30.339Z,0.00
2018-11-14T04:27:30.268Z,0.00
2018-11-14T04:28:30.197Z,0.00
2018-11-14T04:29:30.137Z,0.00
2018-11-14T04:30:30.081Z,0.00
2018-11-14T04:31:30.006Z,0.00
2018-11-14T04:32:29.935Z,0.00
2018-11-14T04:33:29.870Z,0.00
2018-11-14T04:34:29.810Z,0.00
2018-11-14T04:35:29.733Z,0.00
2018-11-14T04:36:29.669Z,0.00
2018-11-14T04:37:29.603Z,0.00
2018-11-14T04:38:29.535Z,0.00
2018-11-14T04:39:29.473Z,0.00
2018-11-14T04:40:29.408Z,0.00
2018-11-14T04:41:29.338Z,0.00
2018-11-14T04:42:29.269Z,0.00
2018-11-14T04:43:29.200Z,0.00
2018-11-14T04:44:29.136Z,0.00
2018-11-14T04:45:29.071Z,0.00
2018-11-14T04:46:29.008Z,0.00
2018-11-14T04:47:28.937Z,0.00
2018-11-14T04:48:28.871Z,0.00
2018-11-14T04:49:28.810Z,0.00
2018-11-14T04:50:28.735Z,0.00
2018-11-14T04:51:28.719Z,0.00
2018-11-14T04:52:28.605Z,0.00
2018-11-14T04:53:28.540Z,0.00
2018-11-14T04:54:28.472Z,0.00
2018-11-14T04:55:28.408Z,0.00
2018-11-14T04:56:28.347Z,0.00
2018-11-14T04:57:28.270Z,0.00
2018-11-14T04:58:28.204Z,0.00
2018-11-14T04:59:28.137Z,0.00
2018-11-14T05:00:28.087Z,0.00
2018-11-14T05:01:28.007Z,0.00
2018-11-14T05:02:27.993Z,0.00
2018-11-14T05:03:27.922Z,0.00
2018-11-14T05:04:27.805Z,0.00
2018-11-14T05:05:27.738Z,0.00
2018-11-14T05:06:27.672Z,0.00
2018-11-14T05:07:27.609Z,0.00
2018-11-14T05:08:27.533Z,0.00
2018-11-14T05:09:27.473Z,0.00
2018-11-14T05:10:27.419Z,0.00
2018-11-14T05:11:27.339Z,0.00
2018-11-14T05:12:27.273Z,0.00
2018-11-14T05:13:27.214Z,0.00
2018-11-14T05:14:27.140Z,0.00
2018-11-14T05:15:27.066Z,0.00
2018-11-14T05:16:27.006Z,0.00
2018-11-14T05:17:26.941Z,0.00
2018-11-14T05:18:26.874Z,0.00
2018-11-14T05:19:26.807Z,0.00
2018-11-14T05:20:26.739Z,0.00
2018-11-14T05:21:26.673Z,0.00
2018-11-14T05:22:26.637Z,0.00
2018-11-14T05:23:26.540Z,0.00
2018-11-14T05:24:26.500Z,0.00
2018-11-14T05:25:26.412Z,0.00
2018-11-14T05:26:26.342Z,0.00
2018-11-14T05:27:26.275Z,0.00
2018-11-14T05:28:26.210Z,0.00
2018-11-14T05:29:26.138Z,0.00
2018-11-14T05:30:26.075Z,0.00
2018-11-14T05:31:26.012Z,0.00
2018-11-14T05:32:25.941Z,0.00
2018-11-14T05:33:25.875Z,0.00
2018-11-14T05:34:25.837Z,0.00
2018-11-14T05:35:25.742Z,0.00
2018-11-14T05:36:25.673Z,0.00
2018-11-14T05:37:25.608Z,0.00
2018-11-14T05:38:25.547Z,0.00
2018-11-14T05:39:25.508Z,0.00
2018-11-14T05:40:25.418Z,0.00
2018-11-14T05:41:25.342Z,0.00
2018-11-14T05:42:25.283Z,0.00
2018-11-14T05:43:25.204Z,0.00
2018-11-14T05:44:25.140Z,0.00
2018-11-14T05:45:25.154Z,0.00
2018-11-14T05:46:25.010Z,0.00
2018-11-14T05:47:24.937Z,0.00
2018-11-14T05:48:24.874Z,0.00
2018-11-14T05:49:24.823Z,0.00
2018-11-14T05:50:24.750Z,0.00
2018-11-14T05:51:24.679Z,0.00
2018-11-14T05:52:24.606Z,0.00
2018-11-14T05:53:24.543Z,0.00
2018-11-14T05:54:24.473Z,0.00
2018-11-14T05:55:24.411Z,0.00
2018-11-14T05:56:24.340Z,0.00
2018-11-14T05:57:24.282Z,0.00
2018-11-14T05:58:24.211Z,4.00
2018-11-14T05:59:24.145Z,4.00
2018-11-14T06:00:24.075Z,0.00
2018-11-14T06:01:24.007Z,0.00
2018-11-14T06:02:23.946Z,4.00
2018-11-14T06:03:23.878Z,4.00
2018-11-14T06:04:23.808Z,4.00
2018-11-14T06:05:23.747Z,4.00
2018-11-14T06:06:23.689Z,8.00
2018-11-14T06:07:23.717Z,4.00
2018-11-14T06:08:23.542Z,8.00
2018-11-14T06:09:23.478Z,8.00
2018-11-14T06:10:23.413Z,8.00
2018-11-14T06:11:23.341Z,12.00
2018-11-14T06:12:23.279Z,12.00
2018-11-14T06:13:23.225Z,12.00
2018-11-14T06:14:23.144Z,16.00
2018-11-14T06:15:23.133Z,16.00
2018-11-14T06:16:23.011Z,16.00
2018-11-14T06:17:22.945Z,20.00
2018-11-14T06:18:22.876Z,20.00
2018-11-14T06:19:22.811Z,24.00
2018-11-14T06:20:22.746Z,28.00
2018-11-14T06:21:22.686Z,28.00
2018-11-14T06:22:22.613Z,28.00
2018-11-14T06:23:22.566Z,36.00
2018-11-14T06:24:22.484Z,36.00
2018-11-14T06:25:22.424Z,40.00
2018-11-14T06:26:22.347Z,48.00
2018-11-14T06:27:22.279Z,56.00
2018-11-14T06:28:22.237Z,56.00
2018-11-14T06:29:22.147Z,56.00
2018-11-14T06:30:22.079Z,60.00
2018-11-14T06:31:22.012Z,64.00
2018-11-14T06:32:21.956Z,68.00
2018-11-14T06:33:21.881Z,76.00
2018-11-14T06:34:21.814Z,84.00
2018-11-14T06:35:21.754Z,84.00
2018-11-14T06:36:21.681Z,92.00
2018-11-14T06:37:21.613Z,96.00
2018-11-14T06:38:21.547Z,96.00
2018-11-14T06:39:21.480Z,100.00
2018-11-14T06:40:21.416Z,104.00
2018-11-14T06:41:21.343Z,108.00
2018-11-14T06:42:21.286Z,116.00
2018-11-14T06:43:21.223Z,120.00
2018-11-14T06:44:21.152Z,128.00
2018-11-14T06:45:21.084Z,132.00
2018-11-14T06:46:21.015Z,136.00
2018-11-14T06:47:20.946Z,140.00
2018-11-14T06:48:20.881Z,144.00
2018-11-14T06:49:20.814Z,148.00
2018-11-14T06:50:20.752Z,152.00
2018-11-14T06:51:20.686Z,160.00
2018-11-14T06:52:20.616Z,168.00
2018-11-14T06:53:20.550Z,172.00
2018-11-14T06:54:20.484Z,172.00
2018-11-14T06:55:20.419Z,184.00
2018-11-14T06:56:20.346Z,188.00
2018-11-14T06:57:20.285Z,196.00
2018-11-14T06:58:20.217Z,200.00
2018-11-14T06:59:20.251Z,216.00
2018-11-14T07:00:20.085Z,224.00
2018-11-14T07:01:20.023Z,236.00
2018-11-14T07:02:20.129Z,232.00
2018-11-14T07:03:19.964Z,240.00
2018-11-14T07:04:19.832Z,256.00
2018-11-14T07:05:19.870Z,260.00
2018-11-14T07:06:19.779Z,264.00
2018-11-14T07:07:19.692Z,276.00
2018-11-14T07:08:19.622Z,276.00
2018-11-14T07:09:19.561Z,296.00
2018-11-14T07:10:19.492Z,308.00
2018-11-14T07:11:19.424Z,320.00
2018-11-14T07:12:19.376Z,336.00
2018-11-14T07:13:19.316Z,352.00
2018-11-14T07:14:19.151Z,360.00
2018-11-14T07:15:19.084Z,368.00
2018-11-14T07:16:19.021Z,376.00
2018-11-14T07:17:18.953Z,380.00
2018-11-14T07:18:18.897Z,380.00
2018-11-14T07:19:18.819Z,392.00
2018-11-14T07:20:18.754Z,400.00
2018-11-14T07:21:18.686Z,396.00
2018-11-14T07:22:18.619Z,380.00
2018-11-14T07:23:18.560Z,388.00
2018-11-14T07:24:18.530Z,396.00
2018-11-14T07:25:18.429Z,400.00
2018-11-14T07:26:18.356Z,400.00
2018-11-14T07:27:18.292Z,408.00
2018-11-14T07:28:18.221Z,420.00
2018-11-14T07:29:18.156Z,444.00
2018-11-14T07:30:18.094Z,464.00
2018-11-14T07:31:18.028Z,436.00
2018-11-14T07:32:18.081Z,272.00
2018-11-14T07:33:17.892Z,276.00
2018-11-14T07:34:17.822Z,432.00
2018-11-14T07:35:17.754Z,484.00
2018-11-14T07:36:17.689Z,456.00
2018-11-14T07:37:17.623Z,452.00
2018-11-14T07:38:17.556Z,500.00
2018-11-14T07:39:17.491Z,544.00
2018-11-14T07:40:17.421Z,532.00
2018-11-14T07:41:17.358Z,400.00
2018-11-14T07:42:17.289Z,304.00
2018-11-14T07:43:17.231Z,364.00
2018-11-14T07:44:17.160Z,576.00
2018-11-14T07:45:17.091Z,612.00
2018-11-14T07:46:17.024Z,628.00
2018-11-14T07:47:16.961Z,620.00
2018-11-14T07:48:16.894Z,648.00
2018-11-14T07:49:16.972Z,616.00
2018-11-14T07:50:16.859Z,636.00
2018-11-14T07:51:16.694Z,672.00
2018-11-14T07:52:16.623Z,672.00
2018-11-14T07:53:16.591Z,644.00
2018-11-14T07:54:16.487Z,564.00
2018-11-14T07:55:16.424Z,532.00
2018-11-14T07:56:16.358Z,548.00
2018-11-14T07:57:16.291Z,624.00
2018-11-14T07:58:16.225Z,660.00
2018-11-14T07:59:16.158Z,700.00
2018-11-14T08:00:16.097Z,728.00
2018-11-14T08:01:16.025Z,752.00
2018-11-14T08:02:16.030Z,760.00
2018-11-14T08:03:15.894Z,796.00
2018-11-14T08:04:15.829Z,812.00
2018-11-14T08:05:15.757Z,784.00
2018-11-14T08:06:15.699Z,756.00
2018-11-14T08:07:15.630Z,784.00
2018-11-14T08:08:15.578Z,752.00
2018-11-14T08:09:15.500Z,776.00
2018-11-14T08:10:15.428Z,824.00
2018-11-14T08:11:15.364Z,884.00
2018-11-14T08:12:15.294Z,872.00
2018-11-14T08:13:15.230Z,840.00
2018-11-14T08:14:15.166Z,844.00
2018-11-14T08:15:15.095Z,864.00
2018-11-14T08:16:15.037Z,892.00
2018-11-14T08:17:14.963Z,860.00
2018-11-14T08:18:14.905Z,792.00
2018-11-14T08:19:14.829Z,776.00
2018-11-14T08:20:14.765Z,688.00
2018-11-14T08:21:14.702Z,848.00
2018-11-14T08:22:14.636Z,868.00
2018-11-14T08:23:14.566Z,812.00
2018-11-14T08:24:14.499Z,956.00
2018-11-14T08:25:14.513Z,956.00
2018-11-14T08:26:14.368Z,888.00
2018-11-14T08:27:14.297Z,716.00
2018-11-14T08:28:14.235Z,696.00
2018-11-14T08:29:14.170Z,736.00
2018-11-14T08:30:14.102Z,708.00
2018-11-14T08:31:14.033Z,668.00
2018-11-14T08:32:13.969Z,684.00
2018-11-14T08:33:13.901Z,692.00
2018-11-14T08:34:13.835Z,732.00
2018-11-14T08:35:13.767Z,940.00
2018-11-14T08:36:13.702Z,1116.00
2018-11-14T08:37:13.649Z,1152.00
2018-11-14T08:38:13.572Z,1108.00
2018-11-14T08:39:13.558Z,1024.00
2018-11-14T08:40:13.435Z,1056.00
2018-11-14T08:41:13.372Z,1060.00
2018-11-14T08:42:13.321Z,1056.00
2018-11-14T08:43:13.240Z,1092.00
2018-11-14T08:44:13.169Z,1080.00
2018-11-14T08:45:13.105Z,1140.00
2018-11-14T08:46:13.038Z,1076.00
2018-11-14T08:47:12.966Z,1096.00
2018-11-14T08:48:12.913Z,1232.00
2018-11-14T08:49:12.846Z,1128.00
2018-11-14T08:50:12.834Z,976.00
2018-11-14T08:51:12.703Z,1236.00
2018-11-14T08:52:12.636Z,1324.00
2018-11-14T08:53:12.572Z,1304.00
2018-11-14T08:54:12.506Z,1424.00
2018-11-14T08:55:12.443Z,1292.00
2018-11-14T08:56:12.379Z,1404.00
2018-11-14T08:57:12.313Z,1468.00
2018-11-14T08:58:12.241Z,1432.00
2018-11-14T08:59:12.173Z,1324.00
2018-11-14T09:00:12.115Z,1172.00
2018-11-14T09:01:12.041Z,1204.00
2018-11-14T09:02:11.977Z,1104.00
2018-11-14T09:03:11.912Z,1188.00
2018-11-14T09:04:11.904Z,1188.00
2018-11-14T09:05:11.783Z,1232.00
2018-11-14T09:06:11.771Z,1252.00
2018-11-14T09:07:11.647Z,1300.00
2018-11-14T09:08:11.575Z,1252.00
2018-11-14T09:09:11.537Z,1268.00
2018-11-14T09:10:11.446Z,1360.00
2018-11-14T09:11:11.519Z,1364.00
2018-11-14T09:12:11.337Z,1204.00
2018-11-14T09:13:11.318Z,1300.00
2018-11-14T09:14:11.182Z,1344.00
2018-11-14T09:15:11.232Z,1336.00
2018-11-14T09:16:11.060Z,1204.00
2018-11-14T09:17:10.983Z,1216.00
2018-11-14T09:18:10.956Z,1232.00
2018-11-14T09:19:10.858Z,1228.00
2018-11-14T09:20:10.803Z,1372.00
2018-11-14T09:21:10.785Z,1436.00
2018-11-14T09:22:10.653Z,1444.00
2018-11-14T09:23:10.598Z,1428.00
2018-11-14T09:24:10.561Z,1424.00
2018-11-14T09:25:10.456Z,1412.00
2018-11-14T09:26:10.390Z,1432.00
2018-11-14T09:27:10.326Z,1420.00
2018-11-14T09:28:10.257Z,1376.00
2018-11-14T09:29:10.193Z,1284.00
2018-11-14T09:30:10.124Z,1300.00
2018-11-14T09:31:10.058Z,1296.00
2018-11-14T09:32:09.992Z,1264.00
2018-11-14T09:33:09.965Z,1240.00
2018-11-14T09:34:09.862Z,1256.00
2018-11-14T09:35:09.803Z,1316.00
2018-11-14T09:36:09.727Z,1340.00
2018-11-14T09:37:09.664Z,1400.00
2018-11-14T09:38:09.606Z,1240.00
2018-11-14T09:39:09.533Z,1168.00
2018-11-14T09:40:09.461Z,1088.00
2018-11-14T09:41:09.412Z,1224.00
2018-11-14T09:42:09.880Z,1172.00
2018-11-14T09:43:09.269Z,1200.00
2018-11-14T09:44:09.797Z,1192.00
2018-11-14T09:45:09.173Z,1244.00
2018-11-14T09:46:09.783Z,1296.00
2018-11-14T09:47:09.005Z,1352.00
2018-11-14T09:48:08.938Z,1316.00
2018-11-14T09:49:08.928Z,1292.00
2018-11-14T09:50:08.808Z,1372.00
2018-11-14T09:51:08.741Z,1480.00
2018-11-14T09:52:08.676Z,1224.00
2018-11-14T09:53:08.680Z,1740.00
2018-11-14T09:54:08.544Z,1184.00
2018-11-14T09:55:08.476Z,1212.00
2018-11-14T09:56:08.409Z,1332.00
2018-11-14T09:57:08.417Z,1420.00
2018-11-14T09:58:08.279Z,1196.00
2018-11-14T09:59:08.224Z,1164.00
2018-11-14T10:00:08.143Z,1092.00
2018-11-14T10:01:08.082Z,1440.00
2018-11-14T10:02:08.020Z,1300.00
2018-11-14T10:03:08.115Z,1204.00
2018-11-14T10:04:07.883Z,1372.00
2018-11-14T10:05:07.847Z,1296.00
2018-11-14T10:06:07.811Z,1268.00
2018-11-14T10:07:07.689Z,1288.00
2018-11-14T10:08:07.620Z,1316.00
2018-11-14T10:09:07.557Z,1180.00
2018-11-14T10:10:07.488Z,1268.00
2018-11-14T10:11:07.420Z,1264.00
2018-11-14T10:12:07.357Z,1292.00
2018-11-14T10:13:07.287Z,1276.00
2018-11-14T10:14:07.284Z,1228.00
2018-11-14T10:15:07.154Z,1232.00
2018-11-14T10:16:07.104Z,1272.00
2018-11-14T10:17:07.031Z,1296.00
2018-11-14T10:18:06.961Z,1280.00
2018-11-14T10:19:06.894Z,1296.00
2018-11-14T10:20:06.830Z,1292.00
2018-11-14T10:21:06.822Z,1232.00
2018-11-14T10:22:06.707Z,1192.00
2018-11-14T10:23:06.640Z,1228.00
2018-11-14T10:24:06.569Z,1304.00
2018-11-14T10:25:06.500Z,1340.00
2018-11-14T10:26:06.432Z,1288.00
2018-11-14T10:27:06.378Z,1300.00
2018-11-14T10:28:06.305Z,1392.00
2018-11-14T10:29:06.238Z,1320.00
2018-11-14T10:30:06.237Z,1244.00
2018-11-14T10:31:06.110Z,1188.00
2018-11-14T10:32:06.035Z,1252.00
2018-11-14T10:33:05.976Z,1388.00
2018-11-14T10:34:05.909Z,1448.00
2018-11-14T10:35:05.848Z,1400.00
2018-11-14T10:36:05.780Z,1492.00
2018-11-14T10:37:05.718Z,1444.00
2018-11-14T10:38:05.641Z,1364.00
2018-11-14T10:39:05.584Z,1364.00
2018-11-14T10:40:05.515Z,1456.00
2018-11-14T10:41:05.461Z,1428.00
2018-11-14T10:42:05.381Z,1440.00
2018-11-14T10:43:05.447Z,1356.00
2018-11-14T10:44:05.250Z,1368.00
2018-11-14T10:45:05.184Z,1412.00
2018-11-14T10:46:05.115Z,1332.00
2018-11-14T10:47:05.056Z,1316.00
2018-11-14T10:48:04.987Z,1248.00
2018-11-14T10:49:04.921Z,1276.00
2018-11-14T10:50:04.856Z,1352.00
2018-11-14T10:51:04.858Z,1300.00
2018-11-14T10:52:04.726Z,1304.00
2018-11-14T10:53:04.658Z,1120.00
2018-11-14T10:54:04.594Z,1192.00
2018-11-14T10:55:04.533Z,1324.00
2018-11-14T10:56:04.465Z,1356.00
2018-11-14T10:57:04.395Z,1496.00
2018-11-14T10:58:04.331Z,1452.00
2018-11-14T10:59:04.263Z,1476.00
2018-11-14T11:00:04.199Z,1452.00
2018-11-14T11:01:04.132Z,1384.00
2018-11-14T11:02:04.074Z,1428.00
2018-11-14T11:03:04.038Z,1412.00
2018-11-14T11:04:03.949Z,1468.00
2018-11-14T11:05:03.870Z,1524.00
2018-11-14T11:06:03.808Z,1352.00
2018-11-14T11:07:03.741Z,1264.00
2018-11-14T11:08:03.750Z,1348.00
2018-11-14T11:09:03.611Z,1300.00
2018-11-14T11:10:03.539Z,1248.00
2018-11-14T11:11:03.475Z,1272.00
2018-11-14T11:12:03.418Z,1360.00
2018-11-14T11:13:03.344Z,1356.00
2018-11-14T11:14:03.279Z,1288.00
2018-11-14T11:15:03.212Z,1240.00
2018-11-14T11:16:03.143Z,1284.00
2018-11-14T11:17:03.083Z,1268.00
2018-11-14T11:18:03.025Z,1312.00
2018-11-14T11:19:02.954Z,1368.00
2018-11-14T11:20:02.884Z,1408.00
2018-11-14T11:21:02.819Z,1396.00
2018-11-14T11:22:02.757Z,1212.00
2018-11-14T11:23:02.687Z,1188.00
2018-11-14T11:24:02.624Z,1164.00
2018-11-14T11:25:02.571Z,1172.00
2018-11-14T11:26:02.491Z,1404.00
2018-11-14T11:27:02.431Z,1572.00
2018-11-14T11:28:02.360Z,1552.00
2018-11-14T11:29:02.297Z,1488.00
2018-11-14T11:30:02.240Z,1396.00
2018-11-14T11:31:02.165Z,1412.00
2018-11-14T11:32:02.248Z,1492.00
2018-11-14T11:33:02.052Z,1708.00
2018-11-14T11:34:01.965Z,1392.00
2018-11-14T11:35:01.904Z,1372.00
2018-11-14T11:36:01.843Z,1300.00
2018-11-14T11:37:01.774Z,1372.00
2018-11-14T11:38:01.765Z,1568.00
2018-11-14T11:39:01.644Z,1416.00
2018-11-14T11:40:01.574Z,1356.00
2018-11-14T11:41:01.516Z,1212.00
2018-11-14T11:42:01.461Z,1264.00
2018-11-14T11:43:01.380Z,1468.00
2018-11-14T11:44:01.315Z,1580.00
2018-11-14T11:45:01.251Z,1440.00
2018-11-14T11:46:01.185Z,1344.00
2018-11-14T11:47:01.122Z,1424.00
2018-11-14T11:48:01.058Z,1464.00
2018-11-14T11:49:00.991Z,1444.00
2018-11-14T11:50:00.939Z,1304.00
2018-11-14T11:51:00.882Z,1196.00
2018-11-14T11:52:00.796Z,1160.00
2018-11-14T11:53:00.733Z,1224.00
2018-11-14T11:54:00.661Z,1276.00
2018-11-14T11:55:00.597Z,1456.00
2018-11-14T11:56:00.533Z,1520.00
2018-11-14T11:57:00.462Z,1628.00
2018-11-14T11:58:00.401Z,1776.00
2018-11-14T11:59:00.346Z,1596.00
2018-11-14T12:00:00.311Z,1652.00
2018-11-14T12:01:00.202Z,1476.00
2018-11-14T12:02:00.148Z,1364.00
2018-11-14T12:03:00.075Z,1284.00
2018-11-14T12:04:00.012Z,1352.00
2018-11-14T12:04:59.945Z,1228.00
2018-11-14T12:05:59.948Z,1196.00
2018-11-14T12:06:59.817Z,1148.00
2018-11-14T12:07:59.745Z,1184.00
2018-11-14T12:08:59.680Z,1232.00
2018-11-14T12:09:59.618Z,1240.00
2018-11-14T12:10:59.555Z,1256.00
2018-11-14T12:11:59.488Z,1340.00
2018-11-14T12:12:59.420Z,1232.00
2018-11-14T12:13:59.360Z,1316.00
2018-11-14T12:14:59.289Z,1292.00
2018-11-14T12:15:59.233Z,1256.00
2018-11-14T12:16:59.164Z,1212.00
2018-11-14T12:17:59.097Z,1220.00
2018-11-14T12:18:59.089Z,1240.00
2018-11-14T12:19:58.964Z,1148.00
2018-11-14T12:20:58.899Z,1156.00
2018-11-14T12:21:58.873Z,1124.00
2018-11-14T12:22:58.768Z,1252.00
2018-11-14T12:23:58.708Z,1188.00
2018-11-14T12:24:58.636Z,1104.00
2018-11-14T12:25:58.572Z,1096.00
2018-11-14T12:26:58.560Z,1152.00
2018-11-14T12:27:58.444Z,1092.00
2018-11-14T12:28:58.377Z,1104.00
2018-11-14T12:29:58.349Z,1208.00
2018-11-14T12:30:58.397Z,1140.00
2018-11-14T12:31:58.188Z,1068.00
2018-11-14T12:32:58.147Z,1056.00
2018-11-14T12:33:58.052Z,1000.00
2018-11-14T12:34:58.019Z,992.00
2018-11-14T12:35:57.922Z,1052.00
2018-11-14T12:36:57.852Z,1180.00
2018-11-14T12:37:57.794Z,1120.00
2018-11-14T12:38:57.763Z,1040.00
2018-11-14T12:39:57.657Z,980.00
2018-11-14T12:40:57.586Z,988.00
2018-11-14T12:41:57.543Z,1012.00
2018-11-14T12:42:57.456Z,952.00
2018-11-14T12:43:57.394Z,916.00